Time;durP1;ratioP1;P1;durP2;ratioP2;P2;SDS_P1;SDS_P2;PMS_P1;PMS_P2;Temp;Humidity;BMP_temperature;BMP_pressure;BME280_temperature;BME280_humidity;BME280_pressure;Samples;Min_cycle;Max_cycle;Signal;HPM_P1;HPM_P2
2022/11/30 00:00:24;;;;;;;;;;;5.00;99.90;;;;;;5072702;28;19967;-79
2022/11/30 00:02:52;;;;;;;;;;;4.90;99.90;;;;;;5071383;28;20024;-78
2022/11/30 00:05:18;;;;;;;;;;;5.00;99.90;;;;;;5069235;28;19924;-78
2022/11/30 00:07:44;;;;;;;;;;;4.80;99.90;;;;;;5053332;28;19921;-79
2022/11/30 00:10:10;;;;;;;;;;;4.70;99.90;;;;;;5071868;28;19921;-79
2022/11/30 00:12:35;;;;;;;;;;;4.70;99.90;;;;;;5104142;28;19932;-78
2022/11/30 00:15:01;;;;;;;;;;;4.60;99.90;;;;;;5070026;28;20043;-79
2022/11/30 00:17:26;;;;;;;;;;;4.60;99.90;;;;;;5055476;28;19928;-79
2022/11/30 00:19:52;;;;;;;;;;;4.50;99.90;;;;;;5071902;28;19921;-79
2022/11/30 00:22:17;;;;;;;;;;;4.50;99.90;;;;;;5070418;28;19936;-78
2022/11/30 00:24:43;;;;;;;;;;;4.40;99.90;;;;;;5071939;28;19970;-78
2022/11/30 00:27:08;;;;;;;;;;;4.40;99.90;;;;;;5056087;28;19931;-79
2022/11/30 00:29:34;;;;;;;;;;;4.30;99.90;;;;;;5071610;28;19920;-79
2022/11/30 00:31:59;;;;;;;;;;;4.20;99.90;;;;;;5069914;28;19974;-79
2022/11/30 00:34:25;;;;;;;;;;;4.20;99.90;;;;;;5069899;28;19920;-79
2022/11/30 00:36:50;;;;;;;;;;;4.10;99.90;;;;;;5055880;28;19920;-79
2022/11/30 00:39:16;;;;;;;;;;;4.10;99.90;;;;;;5070904;28;19927;-80
2022/11/30 00:41:42;;;;;;;;;;;4.00;99.90;;;;;;5071148;28;19924;-79
2022/11/30 00:44:07;;;;;;;;;;;4.00;99.90;;;;;;5070696;28;19920;-79
2022/11/30 00:46:33;;;;;;;;;;;3.90;99.90;;;;;;5057500;28;19920;-79
2022/11/30 00:48:58;;;;;;;;;;;3.90;99.90;;;;;;5068519;28;19924;-79
2022/11/30 00:51:24;;;;;;;;;;;3.80;99.90;;;;;;5070983;28;19921;-79
2022/11/30 00:53:49;;;;;;;;;;;3.80;99.90;;;;;;5070656;28;20297;-80
2022/11/30 00:56:15;;;;;;;;;;;4.10;99.90;;;;;;5061846;28;19921;-79
2022/11/30 00:58:40;;;;;;;;;;;3.90;99.90;;;;;;5064344;28;20362;-79
2022/11/30 01:01:06;;;;;;;;;;;4.00;99.90;;;;;;5070018;28;19951;-78
2022/11/30 01:03:32;;;;;;;;;;;4.20;99.90;;;;;;5070295;28;19951;-79
2022/11/30 01:06:02;;;;;;;;;;;4.20;99.90;;;;;;5070764;28;19927;-79
2022/11/30 01:08:27;;;;;;;;;;;4.30;99.90;;;;;;5053258;28;19991;-79
2022/11/30 01:10:56;;;;;;;;;;;4.40;99.90;;;;;;5070304;28;20061;-78
2022/11/30 01:13:22;;;;;;;;;;;4.50;99.90;;;;;;5069507;28;20004;-80
2022/11/30 01:15:48;;;;;;;;;;;4.60;99.90;;;;;;5071042;28;19978;-79
2022/11/30 01:18:14;;;;;;;;;;;4.60;99.90;;;;;;5054210;28;19975;-79
2022/11/30 01:20:42;;;;;;;;;;;4.70;99.90;;;;;;5070807;28;19931;-78
2022/11/30 01:23:08;;;;;;;;;;;4.70;99.90;;;;;;5069840;28;19970;-79
2022/11/30 01:25:33;;;;;;;;;;;4.70;99.90;;;;;;5069917;28;19920;-79
2022/11/30 01:27:59;;;;;;;;;;;4.70;99.90;;;;;;5054307;28;20324;-79
2022/11/30 01:30:25;;;;;;;;;;;4.80;99.90;;;;;;5070401;28;19924;-79
2022/11/30 01:32:50;;;;;;;;;;;4.80;99.90;;;;;;5068746;28;20007;-79
2022/11/30 01:35:16;;;;;;;;;;;4.90;99.90;;;;;;5070374;28;19925;-78
2022/11/30 01:37:41;;;;;;;;;;;4.90;99.90;;;;;;5054496;28;19924;-81
2022/11/30 01:40:08;;;;;;;;;;;5.10;99.90;;;;;;5085531;28;19924;-79
2022/11/30 01:42:36;;;;;;;;;;;5.00;99.90;;;;;;5069846;28;19920;-79
2022/11/30 01:45:03;;;;;;;;;;;5.10;99.90;;;;;;5070219;28;19983;-79
2022/11/30 01:47:33;;;;;;;;;;;5.00;99.90;;;;;;5054013;28;20003;-79
2022/11/30 01:50:07;;;;;;;;;;;5.10;99.90;;;;;;5070393;28;20367;-80
2022/11/30 01:52:35;;;;;;;;;;;5.10;99.90;;;;;;5069083;28;19942;-79
2022/11/30 01:55:21;;;;;;;;;;;5.10;99.90;;;;;;5070078;28;20003;-79
2022/11/30 01:57:47;;;;;;;;;;;5.00;99.90;;;;;;5054099;28;19921;-79
2022/11/30 02:00:14;;;;;;;;;;;5.20;99.90;;;;;;5070174;28;20341;-81
2022/11/30 02:02:46;;;;;;;;;;;5.10;99.90;;;;;;5073676;28;19932;-79
2022/11/30 02:05:13;;;;;;;;;;;5.10;99.90;;;;;;5074018;28;19927;-79
2022/11/30 02:07:39;;;;;;;;;;;5.10;99.90;;;;;;5057981;28;19925;-79
2022/11/30 02:10:05;;;;;;;;;;;5.20;99.90;;;;;;5073935;28;20043;-79
2022/11/30 02:12:38;;;;;;;;;;;5.10;99.90;;;;;;5072921;28;20543;-80
2022/11/30 02:15:10;;;;;;;;;;;5.20;99.90;;;;;;5073756;28;20378;-79
2022/11/30 02:17:43;;;;;;;;;;;5.20;99.90;;;;;;5057708;28;19921;-79
2022/11/30 02:20:27;;;;;;;;;;;5.20;99.90;;;;;;5074308;28;19998;-79
2022/11/30 02:22:53;;;;;;;;;;;5.20;99.90;;;;;;5072224;28;19931;-79
2022/11/30 02:25:26;;;;;;;;;;;5.30;99.90;;;;;;5073949;28;19924;-79
2022/11/30 02:27:58;;;;;;;;;;;5.30;99.90;;;;;;5057816;28;19920;-79
2022/11/30 02:30:24;;;;;;;;;;;5.40;99.90;;;;;;5073901;28;19932;-78
2022/11/30 02:32:53;;;;;;;;;;;5.30;99.90;;;;;;5073163;28;19950;-79
2022/11/30 02:35:20;;;;;;;;;;;5.40;99.90;;;;;;5072538;28;20140;-79
2022/11/30 02:37:46;;;;;;;;;;;5.30;99.90;;;;;;5057617;28;20313;-79
2022/11/30 02:40:15;;;;;;;;;;;5.30;99.90;;;;;;5073822;28;19920;-79
2022/11/30 02:42:41;;;;;;;;;;;5.40;99.90;;;;;;5072950;28;19920;-79
2022/11/30 02:45:08;;;;;;;;;;;5.40;99.90;;;;;;5073431;28;19966;-79
2022/11/30 02:47:44;;;;;;;;;;;5.30;99.90;;;;;;5056621;28;20274;-79
2022/11/30 02:50:13;;;;;;;;;;;5.40;99.90;;;;;;5072294;28;20377;-79
2022/11/30 02:52:38;;;;;;;;;;;5.40;99.90;;;;;;5072717;28;19925;-79
2022/11/30 02:55:05;;;;;;;;;;;5.40;99.90;;;;;;5073591;28;20401;-79
2022/11/30 02:57:31;;;;;;;;;;;5.30;99.90;;;;;;5057074;28;20418;-78
2022/11/30 02:59:57;;;;;;;;;;;5.30;99.90;;;;;;5105465;28;19947;-79
2022/11/30 03:02:23;;;;;;;;;;;5.50;99.90;;;;;;5072718;28;25981;-79
2022/11/30 03:04:49;;;;;;;;;;;5.40;99.90;;;;;;5073511;28;19975;-79
2022/11/30 03:07:14;;;;;;;;;;;5.40;99.90;;;;;;5056373;28;19920;-79
2022/11/30 03:09:40;;;;;;;;;;;5.40;99.90;;;;;;5071457;28;19925;-79
2022/11/30 03:12:06;;;;;;;;;;;5.50;99.90;;;;;;5068824;28;19976;-78
2022/11/30 03:14:31;;;;;;;;;;;5.50;99.90;;;;;;5070994;28;19920;-79
2022/11/30 03:16:57;;;;;;;;;;;5.40;99.90;;;;;;5057795;28;19920;-79
2022/11/30 03:19:22;;;;;;;;;;;5.50;99.90;;;;;;5072085;28;19960;-79
2022/11/30 03:21:48;;;;;;;;;;;5.50;99.90;;;;;;5072516;28;19921;-79
2022/11/30 03:24:13;;;;;;;;;;;5.60;99.90;;;;;;5071544;28;20273;-79
2022/11/30 03:26:39;;;;;;;;;;;5.60;99.90;;;;;;5059008;28;19924;-79
2022/11/30 03:29:04;;;;;;;;;;;5.50;99.90;;;;;;5070051;28;19921;-79
2022/11/30 03:31:30;;;;;;;;;;;5.50;99.90;;;;;;5072658;28;20413;-78
2022/11/30 03:33:56;;;;;;;;;;;5.60;99.90;;;;;;5072101;28;19920;-78
2022/11/30 03:36:21;;;;;;;;;;;5.60;99.90;;;;;;5060742;28;20019;-79
2022/11/30 03:38:47;;;;;;;;;;;5.50;99.90;;;;;;5068398;28;19966;-79
2022/11/30 03:41:15;;;;;;;;;;;5.60;99.90;;;;;;5072409;28;20386;-79
2022/11/30 03:43:41;;;;;;;;;;;5.60;99.90;;;;;;5070627;28;19928;-79
2022/11/30 03:46:06;;;;;;;;;;;5.60;99.90;;;;;;5069146;28;20022;-83
2022/11/30 03:48:34;;;;;;;;;;;5.60;99.90;;;;;;5060833;28;20003;-79
2022/11/30 03:51:00;;;;;;;;;;;5.50;99.90;;;;;;5072052;28;19981;-79
2022/11/30 03:53:26;;;;;;;;;;;5.50;99.90;;;;;;5071508;28;20015;-79
2022/11/30 03:55:53;;;;;;;;;;;5.60;99.90;;;;;;5072273;28;19920;-79
2022/11/30 03:58:19;;;;;;;;;;;5.60;99.90;;;;;;5056214;28;19924;-79
2022/11/30 04:00:44;;;;;;;;;;;5.60;99.90;;;;;;5072424;28;19921;-80
2022/11/30 04:03:10;;;;;;;;;;;5.60;99.90;;;;;;5071339;28;19924;-80
2022/11/30 04:05:35;;;;;;;;;;;5.60;99.90;;;;;;5071437;28;19978;-79
2022/11/30 04:08:01;;;;;;;;;;;5.60;99.90;;;;;;5055799;28;20413;-79
2022/11/30 04:10:27;;;;;;;;;;;5.60;99.90;;;;;;5071690;28;19981;-79
2022/11/30 04:12:52;;;;;;;;;;;5.60;99.90;;;;;;5071361;28;19928;-79
2022/11/30 04:15:18;;;;;;;;;;;5.60;99.90;;;;;;5070813;28;20424;-79
2022/11/30 04:17:43;;;;;;;;;;;5.80;99.90;;;;;;5054911;28;19925;-79
2022/11/30 04:20:10;;;;;;;;;;;5.60;99.90;;;;;;5071639;28;19924;-79
2022/11/30 04:22:35;;;;;;;;;;;5.60;99.90;;;;;;5070770;28;19931;-78
2022/11/30 04:25:01;;;;;;;;;;;5.70;99.90;;;;;;5071337;28;20317;-79
2022/11/30 04:27:29;;;;;;;;;;;5.80;99.90;;;;;;5055298;28;20294;-78
2022/11/30 04:29:54;;;;;;;;;;;5.70;99.90;;;;;;5071101;28;19974;-79
2022/11/30 04:32:20;;;;;;;;;;;5.70;99.90;;;;;;5071158;28;19920;-78
2022/11/30 04:34:46;;;;;;;;;;;5.90;99.90;;;;;;5070461;28;19921;-79
2022/11/30 04:37:11;;;;;;;;;;;5.70;99.90;;;;;;5056159;28;20003;-79
2022/11/30 04:39:37;;;;;;;;;;;5.70;99.90;;;;;;5071033;28;20463;-80
2022/11/30 04:42:02;;;;;;;;;;;5.70;99.90;;;;;;5071278;28;20293;-82
2022/11/30 04:44:28;;;;;;;;;;;5.70;99.90;;;;;;5070107;28;19924;-78
2022/11/30 04:46:53;;;;;;;;;;;5.70;99.90;;;;;;5071423;28;20377;-78
2022/11/30 04:49:19;;;;;;;;;;;5.70;99.90;;;;;;5069918;28;20405;-78
2022/11/30 04:51:44;;;;;;;;;;;5.80;99.90;;;;;;5066065;28;20322;-78
2022/11/30 04:54:10;;;;;;;;;;;5.80;99.90;;;;;;5069652;28;20322;-78
2022/11/30 04:56:35;;;;;;;;;;;5.80;99.90;;;;;;5053289;28;20377;-78
2022/11/30 04:59:01;;;;;;;;;;;5.80;99.90;;;;;;5101223;28;20362;-78
2022/11/30 05:01:27;;;;;;;;;;;5.80;99.90;;;;;;5069286;28;19943;-79
2022/11/30 05:03:52;;;;;;;;;;;5.80;99.90;;;;;;5069878;28;19970;-79
2022/11/30 05:06:18;;;;;;;;;;;5.90;99.90;;;;;;5060207;28;20090;-78
2022/11/30 05:08:43;;;;;;;;;;;5.80;99.90;;;;;;5065380;28;19927;-80
2022/11/30 05:11:09;;;;;;;;;;;5.80;99.90;;;;;;5070119;28;19928;-78
2022/11/30 05:13:34;;;;;;;;;;;5.80;99.90;;;;;;5070402;28;19924;-78
2022/11/30 05:16:00;;;;;;;;;;;5.90;99.90;;;;;;5070454;28;19922;-79
2022/11/30 05:18:26;;;;;;;;;;;6.00;99.90;;;;;;5054658;28;19927;-79
2022/11/30 05:20:51;;;;;;;;;;;5.80;99.90;;;;;;5069572;28;20332;-80
2022/11/30 05:23:18;;;;;;;;;;;5.90;99.90;;;;;;5069219;28;19920;-79
2022/11/30 05:25:43;;;;;;;;;;;5.90;99.90;;;;;;5070808;28;20027;-79
2022/11/30 05:28:09;;;;;;;;;;;5.90;99.90;;;;;;5054112;28;20401;-78
2022/11/30 05:30:35;;;;;;;;;;;5.90;99.90;;;;;;5070678;28;19975;-79
2022/11/30 05:33:00;;;;;;;;;;;5.90;99.90;;;;;;5070129;28;20357;-79
2022/11/30 05:35:26;;;;;;;;;;;6.00;99.90;;;;;;5069900;28;19967;-79
2022/11/30 05:37:51;;;;;;;;;;;5.90;99.90;;;;;;5054366;28;19924;-78
2022/11/30 05:40:17;;;;;;;;;;;6.00;99.90;;;;;;5070004;28;19920;-79
2022/11/30 05:42:42;;;;;;;;;;;5.90;99.90;;;;;;5069365;28;20342;-79
2022/11/30 05:45:08;;;;;;;;;;;5.90;99.90;;;;;;5070345;28;19921;-79
2022/11/30 05:47:34;;;;;;;;;;;5.90;99.90;;;;;;5053997;28;19932;-79
2022/11/30 05:49:59;;;;;;;;;;;5.90;99.90;;;;;;5069752;28;19920;-79
2022/11/30 05:52:25;;;;;;;;;;;6.00;99.90;;;;;;5069242;28;20011;-79
2022/11/30 05:54:50;;;;;;;;;;;5.90;99.90;;;;;;5070449;28;19920;-79
2022/11/30 05:57:16;;;;;;;;;;;5.90;99.90;;;;;;5050745;28;20491;-80
2022/11/30 05:59:41;;;;;;;;;;;5.90;99.90;;;;;;5065756;28;19927;-82
2022/11/30 06:02:07;;;;;;;;;;;5.90;99.90;;;;;;5060525;28;19925;-79
2022/11/30 06:04:33;;;;;;;;;;;5.90;99.90;;;;;;5056798;28;20293;-79
2022/11/30 06:06:58;;;;;;;;;;;5.90;99.90;;;;;;5043951;28;19986;-79
2022/11/30 06:09:24;;;;;;;;;;;5.90;99.90;;;;;;5049182;28;19928;-80
2022/11/30 06:11:49;;;;;;;;;;;5.90;99.90;;;;;;5047135;28;20259;-82
2022/11/30 06:14:15;;;;;;;;;;;5.90;99.90;;;;;;5070881;28;19950;-79
2022/11/30 06:16:41;;;;;;;;;;;5.90;99.90;;;;;;5033790;28;20263;-79
2022/11/30 06:19:06;;;;;;;;;;;5.90;99.90;;;;;;5060485;28;19970;-80
2022/11/30 06:21:32;;;;;;;;;;;5.90;99.90;;;;;;5062697;28;19932;-79
2022/11/30 06:23:57;;;;;;;;;;;5.90;99.90;;;;;;5059676;28;19928;-79
2022/11/30 06:26:23;;;;;;;;;;;5.90;99.90;;;;;;5048040;28;19925;-79
2022/11/30 06:28:48;;;;;;;;;;;6.00;99.90;;;;;;5064854;28;19924;-80
2022/11/30 06:31:14;;;;;;;;;;;5.90;99.90;;;;;;5068961;28;19925;-78
2022/11/30 06:33:40;;;;;;;;;;;5.90;99.90;;;;;;5069365;28;20003;-79
2022/11/30 06:36:06;;;;;;;;;;;6.00;99.90;;;;;;5068748;28;19943;-81
2022/11/30 06:38:31;;;;;;;;;;;5.90;99.90;;;;;;5057474;28;19978;-79
2022/11/30 06:41:04;;;;;;;;;;;5.90;99.90;;;;;;5070065;28;19924;-80
2022/11/30 06:43:37;;;;;;;;;;;5.90;99.90;;;;;;5068314;28;19921;-79
2022/11/30 06:46:03;;;;;;;;;;;5.90;99.90;;;;;;5070097;28;19999;-79
2022/11/30 06:48:29;;;;;;;;;;;5.90;99.90;;;;;;5055244;28;19924;-78
2022/11/30 06:50:54;;;;;;;;;;;5.80;99.90;;;;;;5072644;28;19924;-79
2022/11/30 06:53:20;;;;;;;;;;;5.90;99.90;;;;;;5072193;28;19924;-79
2022/11/30 06:55:45;;;;;;;;;;;5.80;99.90;;;;;;5073341;28;19924;-79
2022/11/30 06:58:11;;;;;;;;;;;5.80;99.90;;;;;;5057119;28;19925;-79
2022/11/30 07:00:37;;;;;;;;;;;5.90;99.90;;;;;;5073455;28;19968;-79
2022/11/30 07:03:03;;;;;;;;;;;5.90;99.90;;;;;;5071997;28;20408;-79
2022/11/30 07:05:29;;;;;;;;;;;5.80;99.90;;;;;;5078347;28;20546;-80
2022/11/30 07:07:55;;;;;;;;;;;5.80;99.90;;;;;;5057362;28;19921;-79
2022/11/30 07:10:21;;;;;;;;;;;5.80;99.90;;;;;;5073201;28;20359;-79
2022/11/30 07:12:47;;;;;;;;;;;5.80;99.90;;;;;;5071910;28;19928;-79
2022/11/30 07:15:13;;;;;;;;;;;5.80;99.90;;;;;;5072976;28;19921;-79
2022/11/30 07:17:38;;;;;;;;;;;5.80;99.90;;;;;;5057120;28;19970;-79
2022/11/30 07:20:04;;;;;;;;;;;5.80;99.90;;;;;;5073367;28;19927;-78
2022/11/30 07:22:30;;;;;;;;;;;5.80;99.90;;;;;;5071780;28;20228;-81
2022/11/30 07:27:40;;;;;;;;;;;5.70;99.90;;;;;;5055608;28;19974;-79
2022/11/30 07:30:06;;;;;;;;;;;5.80;99.90;;;;;;5072647;28;19920;-79
2022/11/30 07:32:31;;;;;;;;;;;5.80;99.90;;;;;;5070790;28;19981;-79
2022/11/30 07:34:57;;;;;;;;;;;5.70;99.90;;;;;;5071400;28;19989;-79
2022/11/30 07:37:22;;;;;;;;;;;5.70;99.90;;;;;;5054449;28;19921;-79
2022/11/30 07:39:48;;;;;;;;;;;5.80;99.90;;;;;;5071825;28;19924;-78
2022/11/30 07:42:13;;;;;;;;;;;5.70;99.90;;;;;;5071135;28;20462;-79
2022/11/30 07:44:40;;;;;;;;;;;5.70;99.90;;;;;;5071579;28;20281;-79
2022/11/30 07:47:05;;;;;;;;;;;5.70;99.90;;;;;;5055202;28;19925;-81
2022/11/30 07:49:31;;;;;;;;;;;5.70;99.90;;;;;;5071856;28;20250;-79
2022/11/30 07:51:56;;;;;;;;;;;5.80;99.90;;;;;;5071574;28;20086;-79
2022/11/30 07:54:22;;;;;;;;;;;5.70;99.90;;;;;;5070672;28;19920;-79
2022/11/30 07:56:47;;;;;;;;;;;5.70;99.90;;;;;;5053107;28;19929;-79
2022/11/30 07:59:13;;;;;;;;;;;5.70;99.90;;;;;;5068027;28;19927;-79
2022/11/30 08:01:39;;;;;;;;;;;5.70;99.90;;;;;;5071121;28;19935;-78
2022/11/30 08:04:04;;;;;;;;;;;5.70;99.90;;;;;;5068498;28;19983;-79
2022/11/30 08:06:30;;;;;;;;;;;5.60;99.90;;;;;;5059789;28;20589;-78
2022/11/30 08:08:58;;;;;;;;;;;5.70;99.90;;;;;;5069177;28;20037;-79
2022/11/30 08:11:24;;;;;;;;;;;5.80;99.90;;;;;;5049779;28;20285;-79
2022/11/30 08:13:50;;;;;;;;;;;5.70;99.90;;;;;;5078242;28;19982;-81
2022/11/30 08:16:20;;;;;;;;;;;5.60;99.90;;;;;;5042469;28;20003;-82
2022/11/30 08:18:46;;;;;;;;;;;5.60;99.90;;;;;;5047110;28;19966;-79
2022/11/30 08:21:13;;;;;;;;;;;5.60;99.90;;;;;;5051553;28;20907;-79
2022/11/30 08:23:40;;;;;;;;;;;5.60;99.90;;;;;;5048788;28;19939;-83
2022/11/30 08:26:13;;;;;;;;;;;5.60;99.90;;;;;;5031773;28;19972;-82
2022/11/30 08:28:39;;;;;;;;;;;5.60;99.90;;;;;;5040972;28;19924;-79
2022/11/30 08:31:06;;;;;;;;;;;5.60;99.90;;;;;;5049333;28;19955;-82
2022/11/30 08:33:33;;;;;;;;;;;5.60;99.90;;;;;;5049156;28;19925;-79
2022/11/30 08:36:25;;;;;;;;;;;5.90;99.90;;;;;;5049521;28;19947;-79
2022/11/30 08:38:50;;;;;;;;;;;5.70;99.90;;;;;;5041560;28;21335;-78
2022/11/30 08:41:18;;;;;;;;;;;5.60;99.90;;;;;;5065295;28;19944;-80
2022/11/30 08:43:43;;;;;;;;;;;5.90;99.90;;;;;;5048550;28;20726;-79
2022/11/30 08:46:11;;;;;;;;;;;5.70;99.90;;;;;;5042904;28;20461;-83
2022/11/30 08:48:36;;;;;;;;;;;5.70;99.90;;;;;;5040790;28;20123;-79
2022/11/30 08:51:03;;;;;;;;;;;5.90;99.90;;;;;;5049337;28;19924;-80
2022/11/30 08:53:29;;;;;;;;;;;5.70;99.90;;;;;;5048926;28;19933;-81
2022/11/30 08:55:59;;;;;;;;;;;5.70;99.90;;;;;;5050256;28;19966;-79
2022/11/30 08:58:25;;;;;;;;;;;5.70;99.90;;;;;;5033677;28;19938;-80
2022/11/30 09:00:50;;;;;;;;;;;5.80;99.90;;;;;;5050496;28;19924;-78
2022/11/30 09:03:16;;;;;;;;;;;5.80;99.90;;;;;;5049765;28;20374;-79
2022/11/30 09:05:41;;;;;;;;;;;5.80;99.90;;;;;;5050638;28;20306;-82
2022/11/30 09:08:07;;;;;;;;;;;5.80;99.90;;;;;;5034823;28;20021;-79
2022/11/30 09:10:32;;;;;;;;;;;5.80;99.90;;;;;;5049891;28;20389;-79
2022/11/30 09:12:58;;;;;;;;;;;5.80;99.90;;;;;;5049090;28;20365;-80
2022/11/30 09:15:23;;;;;;;;;;;5.90;99.90;;;;;;5050939;28;19932;-78
2022/11/30 09:17:49;;;;;;;;;;;5.90;99.90;;;;;;5033021;28;20027;-78
2022/11/30 09:20:14;;;;;;;;;;;5.90;99.90;;;;;;5051117;28;20023;-81
2022/11/30 09:22:40;;;;;;;;;;;5.90;99.90;;;;;;5049543;28;19964;-82
2022/11/30 09:25:06;;;;;;;;;;;5.90;99.90;;;;;;5047911;28;20447;-79
2022/11/30 09:27:32;;;;;;;;;;;6.00;99.90;;;;;;5033499;28;19995;-79
2022/11/30 09:29:58;;;;;;;;;;;5.90;99.90;;;;;;5049411;28;19933;-80
2022/11/30 09:32:23;;;;;;;;;;;6.00;99.90;;;;;;5048652;28;20362;-80
2022/11/30 09:34:49;;;;;;;;;;;6.00;99.90;;;;;;5049753;28;20292;-79
2022/11/30 09:37:14;;;;;;;;;;;6.20;99.90;;;;;;5034071;28;19924;-80
2022/11/30 09:39:40;;;;;;;;;;;6.10;99.90;;;;;;5044645;28;19932;-80
2022/11/30 09:42:18;;;;;;;;;;;6.10;99.90;;;;;;5047435;28;19932;-80
2022/11/30 09:44:47;;;;;;;;;;;6.10;99.90;;;;;;5047659;28;19932;-82
2022/11/30 09:47:31;;;;;;;;;;;6.20;99.90;;;;;;5031968;28;20499;-80
2022/11/30 09:50:00;;;;;;;;;;;6.10;99.90;;;;;;5047308;28;19932;-82
2022/11/30 09:52:38;;;;;;;;;;;6.10;99.90;;;;;;5047290;28;20008;-79
2022/11/30 09:55:08;;;;;;;;;;;6.20;99.90;;;;;;5046800;28;20379;-79
2022/11/30 09:57:43;;;;;;;;;;;6.20;99.90;;;;;;5033067;28;19966;-80
2022/11/30 10:00:14;;;;;;;;;;;6.20;99.90;;;;;;5062716;28;19932;-79
2022/11/30 10:02:39;;;;;;;;;;;6.20;99.90;;;;;;5047703;28;19994;-81
2022/11/30 10:05:13;;;;;;;;;;;6.20;99.90;;;;;;5049245;28;19944;-79
2022/11/30 10:07:57;;;;;;;;;;;6.20;99.90;;;;;;5032823;28;19940;-80
2022/11/30 10:10:27;;;;;;;;;;;6.20;99.90;;;;;;5045988;28;19978;-79
2022/11/30 10:13:01;;;;;;;;;;;6.30;99.90;;;;;;5046257;28;19932;-78
2022/11/30 10:15:29;;;;;;;;;;;6.30;99.90;;;;;;5048147;28;19933;-80
2022/11/30 10:18:02;;;;;;;;;;;6.30;99.90;;;;;;5030235;28;21313;-81
2022/11/30 10:20:37;;;;;;;;;;;6.40;99.90;;;;;;5047302;28;19932;-81
2022/11/30 10:23:13;;;;;;;;;;;6.40;99.90;;;;;;5051082;28;19932;-83
2022/11/30 10:25:50;;;;;;;;;;;6.40;99.90;;;;;;5048553;28;20030;-79
2022/11/30 10:28:18;;;;;;;;;;;6.40;99.90;;;;;;5032684;28;19932;-81
2022/11/30 10:30:45;;;;;;;;;;;6.40;99.90;;;;;;5047972;28;20011;-79
2022/11/30 10:33:18;;;;;;;;;;;6.40;99.90;;;;;;5047785;28;19939;-79
2022/11/30 10:35:48;;;;;;;;;;;6.40;99.90;;;;;;5051029;28;19969;-79
2022/11/30 10:38:16;;;;;;;;;;;6.30;99.90;;;;;;5034989;28;19932;-81
2022/11/30 10:40:48;;;;;;;;;;;6.40;99.90;;;;;;5051610;28;20278;-82
2022/11/30 10:43:19;;;;;;;;;;;6.40;99.90;;;;;;5051674;28;19927;-79
2022/11/30 10:45:47;;;;;;;;;;;6.40;99.90;;;;;;5052146;28;19973;-79
2022/11/30 10:48:15;;;;;;;;;;;6.40;99.90;;;;;;5037585;28;19976;-78
2022/11/30 10:50:41;;;;;;;;;;;6.40;99.90;;;;;;5053381;28;19933;-82
2022/11/30 10:53:10;;;;;;;;;;;6.40;99.90;;;;;;5052363;28;20447;-78
2022/11/30 10:55:40;;;;;;;;;;;6.40;99.90;;;;;;5052558;28;19997;-82
2022/11/30 10:58:12;;;;;;;;;;;6.40;99.90;;;;;;5035171;28;20028;-80
2022/11/30 11:00:37;;;;;;;;;;;6.40;99.90;;;;;;5051044;28;20140;-78
2022/11/30 11:03:20;;;;;;;;;;;6.40;99.90;;;;;;5047868;28;20282;-82
2022/11/30 11:06:01;;;;;;;;;;;6.40;99.90;;;;;;5050027;28;20043;-80
2022/11/30 11:08:27;;;;;;;;;;;6.50;99.90;;;;;;5035694;28;19933;-80
2022/11/30 11:10:56;;;;;;;;;;;6.40;99.90;;;;;;5051156;28;19928;-79
2022/11/30 11:13:35;;;;;;;;;;;6.40;99.90;;;;;;5050833;28;19933;-80
2022/11/30 11:16:01;;;;;;;;;;;6.50;99.90;;;;;;5050945;28;20854;-79
2022/11/30 11:18:28;;;;;;;;;;;6.50;99.90;;;;;;5035183;28;20401;-82
2022/11/30 11:21:02;;;;;;;;;;;6.60;99.90;;;;;;5054302;28;19932;-82
2022/11/30 11:23:33;;;;;;;;;;;6.40;99.90;;;;;;5051701;28;19932;-80
2022/11/30 11:25:59;;;;;;;;;;;6.40;99.90;;;;;;5051398;28;20007;-78
2022/11/30 11:28:25;;;;;;;;;;;6.40;99.90;;;;;;5032713;28;19933;-79
2022/11/30 11:30:53;;;;;;;;;;;6.40;99.90;;;;;;5051481;28;20375;-79
2022/11/30 11:33:19;;;;;;;;;;;6.40;99.90;;;;;;5048390;28;19932;-79
2022/11/30 11:35:49;;;;;;;;;;;6.40;99.90;;;;;;5051322;28;20294;-81
2022/11/30 11:38:24;;;;;;;;;;;6.40;99.90;;;;;;5034543;28;19932;-80
2022/11/30 11:40:50;;;;;;;;;;;6.40;99.90;;;;;;5050507;28;19932;-80
2022/11/30 11:43:16;;;;;;;;;;;6.50;99.90;;;;;;5049679;28;21387;-79
2022/11/30 11:45:48;;;;;;;;;;;6.50;99.90;;;;;;5048722;28;19934;-79
2022/11/30 11:48:34;;;;;;;;;;;6.50;99.90;;;;;;5034126;28;19928;-79
2022/11/30 11:51:04;;;;;;;;;;;6.40;99.90;;;;;;5049994;28;20316;-79
2022/11/30 11:53:48;;;;;;;;;;;6.40;99.90;;;;;;5050903;28;19947;-79
2022/11/30 11:56:22;;;;;;;;;;;6.50;99.90;;;;;;5043531;28;20357;-82
2022/11/30 11:58:50;;;;;;;;;;;6.50;99.90;;;;;;5062548;28;20362;-82
2022/11/30 12:01:20;;;;;;;;;;;6.50;99.90;;;;;;5052183;28;19933;-79
2022/11/30 12:03:55;;;;;;;;;;;6.40;99.90;;;;;;5051529;28;20017;-79
2022/11/30 12:06:21;;;;;;;;;;;6.40;99.90;;;;;;5040914;28;19932;-82
2022/11/30 12:08:56;;;;;;;;;;;6.50;99.90;;;;;;5046742;28;19933;-79
2022/11/30 12:11:28;;;;;;;;;;;6.40;99.90;;;;;;5049911;28;19979;-79
2022/11/30 12:13:54;;;;;;;;;;;6.40;99.90;;;;;;5050828;28;19964;-79
2022/11/30 12:16:29;;;;;;;;;;;6.40;99.90;;;;;;5042263;28;20036;-79
2022/11/30 12:18:55;;;;;;;;;;;6.40;99.90;;;;;;5047526;28;19932;-81
2022/11/30 12:21:44;;;;;;;;;;;6.40;99.90;;;;;;5051167;28;19932;-79
2022/11/30 12:24:13;;;;;;;;;;;6.40;99.90;;;;;;5050012;28;20402;-82
2022/11/30 12:26:51;;;;;;;;;;;6.40;99.90;;;;;;5037361;28;19920;-79
2022/11/30 12:29:17;;;;;;;;;;;6.40;99.90;;;;;;5050162;28;20025;-81
2022/11/30 12:32:01;;;;;;;;;;;6.40;99.90;;;;;;5051021;28;19941;-78
2022/11/30 12:34:45;;;;;;;;;;;6.40;99.90;;;;;;5050306;28;19932;-80
2022/11/30 12:37:27;;;;;;;;;;;6.40;99.90;;;;;;5035223;28;20448;-79
2022/11/30 12:39:59;;;;;;;;;;;6.40;99.90;;;;;;5049891;28;19932;-81
2022/11/30 12:42:25;;;;;;;;;;;6.40;99.90;;;;;;5049583;28;19924;-81
2022/11/30 12:44:56;;;;;;;;;;;6.40;99.90;;;;;;5049729;28;20409;-82
2022/11/30 12:47:44;;;;;;;;;;;6.40;99.90;;;;;;5033039;28;20582;-79
2022/11/30 12:50:09;;;;;;;;;;;6.40;99.90;;;;;;5050810;28;20058;-79
2022/11/30 12:52:53;;;;;;;;;;;6.50;99.90;;;;;;5049473;28;19991;-79
2022/11/30 12:55:31;;;;;;;;;;;6.40;99.90;;;;;;5048820;28;19967;-79
2022/11/30 12:58:01;;;;;;;;;;;6.40;99.90;;;;;;5032656;28;19940;-80
2022/11/30 13:00:33;;;;;;;;;;;6.40;99.90;;;;;;5049189;28;19920;-79
2022/11/30 13:03:05;;;;;;;;;;;6.50;99.90;;;;;;5048297;28;20008;-81
2022/11/30 13:05:36;;;;;;;;;;;6.40;99.90;;;;;;5065341;28;20346;-79
2022/11/30 13:08:20;;;;;;;;;;;6.40;99.90;;;;;;5051167;28;19921;-82
2022/11/30 13:10:48;;;;;;;;;;;6.40;99.90;;;;;;5065755;28;19947;-79
2022/11/30 13:13:25;;;;;;;;;;;6.40;99.90;;;;;;5069295;28;19927;-79
2022/11/30 13:15:50;;;;;;;;;;;6.40;99.90;;;;;;5068519;28;19921;-79
2022/11/30 13:18:20;;;;;;;;;;;6.40;99.90;;;;;;5053986;28;19920;-79
2022/11/30 13:20:46;;;;;;;;;;;6.40;99.90;;;;;;5070676;28;19928;-79
2022/11/30 13:23:18;;;;;;;;;;;6.40;99.90;;;;;;5069180;28;20273;-79
2022/11/30 13:25:44;;;;;;;;;;;6.40;99.90;;;;;;5067372;28;19951;-79
2022/11/30 13:28:15;;;;;;;;;;;6.40;99.90;;;;;;5053677;28;20397;-79
2022/11/30 13:30:47;;;;;;;;;;;6.40;99.90;;;;;;5066779;28;20353;-79
2022/11/30 13:33:32;;;;;;;;;;;6.40;99.90;;;;;;5068862;28;19943;-79
2022/11/30 13:35:57;;;;;;;;;;;6.40;99.90;;;;;;5071049;28;20003;-79
2022/11/30 13:38:23;;;;;;;;;;;6.40;99.90;;;;;;5054028;28;19920;-79
2022/11/30 13:40:58;;;;;;;;;;;6.30;99.90;;;;;;5068472;28;20414;-79
2022/11/30 13:43:25;;;;;;;;;;;6.30;99.90;;;;;;5065004;28;20424;-80
2022/11/30 13:46:12;;;;;;;;;;;6.30;99.90;;;;;;5066529;28;20420;-81
2022/11/30 13:48:39;;;;;;;;;;;6.30;99.90;;;;;;5056914;28;20037;-79
2022/11/30 13:51:05;;;;;;;;;;;6.20;99.90;;;;;;5050018;28;19924;-79
2022/11/30 13:53:37;;;;;;;;;;;6.20;99.90;;;;;;5050567;28;20018;-79
2022/11/30 13:56:23;;;;;;;;;;;6.20;99.90;;;;;;5048480;28;19937;-82
2022/11/30 13:59:07;;;;;;;;;;;6.20;99.90;;;;;;5046861;28;19933;-79
2022/11/30 14:01:33;;;;;;;;;;;6.20;99.90;;;;;;5044654;28;20019;-80
2022/11/30 14:04:13;;;;;;;;;;;6.20;99.90;;;;;;5045221;28;20264;-82
2022/11/30 14:06:48;;;;;;;;;;;6.20;99.90;;;;;;5043522;28;20366;-80
2022/11/30 14:09:15;;;;;;;;;;;6.20;99.90;;;;;;5038806;28;19955;-83
2022/11/30 14:11:41;;;;;;;;;;;6.20;99.90;;;;;;5045420;28;20082;-80
2022/11/30 14:14:25;;;;;;;;;;;6.30;99.90;;;;;;5043881;28;19939;-82
2022/11/30 14:16:51;;;;;;;;;;;6.20;99.90;;;;;;5029223;28;19933;-81
2022/11/30 14:19:17;;;;;;;;;;;6.30;99.90;;;;;;5046012;28;19928;-79
2022/11/30 14:21:43;;;;;;;;;;;6.20;99.90;;;;;;5045351;28;19939;-80
2022/11/30 14:24:12;;;;;;;;;;;6.20;99.90;;;;;;5043867;28;19932;-80
2022/11/30 14:26:43;;;;;;;;;;;6.20;99.90;;;;;;5032696;28;19932;-82
2022/11/30 14:29:20;;;;;;;;;;;6.20;99.90;;;;;;5044905;28;20425;-82
2022/11/30 14:31:46;;;;;;;;;;;6.20;99.90;;;;;;5045208;28;19932;-80
2022/11/30 14:34:16;;;;;;;;;;;6.10;99.90;;;;;;5045518;28;20000;-82
2022/11/30 14:36:52;;;;;;;;;;;6.10;99.90;;;;;;5030568;28;20881;-82
2022/11/30 14:39:24;;;;;;;;;;;6.10;99.90;;;;;;5045184;28;19932;-82